Weather observations for the past three days for
Ponce, Mercedita Airport
Metric (Imperial)
Date Time (ast) Wind (kph) Vis. (km) Weather Sky Cond. Temperature (ºC) Relative Humidity Wind Chill (°C) Heat Index (°C) Pressure Precipitation (cm)
Air Dwpt 6 hour altimeter (cm) sea level (mb) 1 hr 3 hr 6 hr
Max. Min.
04 20:15 E 7 16.09 NULL NULL 27 24 84% 30 76.15 0.0
04 19:55 E 7 16.09 NULL NULL 27 24 84% 30 76.15 0.0
04 19:35 E 7 16.09 NULL NULL 28 24 79% 32 76.15 0.0
04 19:10 SE 9 16.09 NULL NULL 28 24 79% 32 76.12 0.0
04 18:55 SE 13 16.09 Overcast OVC060 28 24 79% 32 76.1 0.0
04 18:35 SE 11 16.09 Overcast OVC060 28 24 79% 32 76.1 0.0
04 18:15 SE 15 16.09 Overcast OVC060 29 24 74% 34 76.07 0.0
04 17:55 SE 15 16.09 Overcast OVC060 29 24 74% 34 76.07 0.0
04 17:35 SE 17 16.09 Overcast OVC060 29 23 70% 33 76.05 0.0
04 16:55 SE 13 16.09 Partly Cloudy SCT055 29 23 70% 33 76.05 0.0
04 16:35 SE 19 16.09 Partly Cloudy FEW050 SCT060 30 23 66% 34 76.05 0.0
04 16:15 SE 22 16.09 Mostly Cloudy BKN055 29 22 66% 32 76.05 0.0
04 15:55 S 20 G 31 16.09 Mostly Cloudy FEW025 BKN060 30 23 66% 34 76.05 0.0
04 15:35 SE 19 G 31 16.09 Partly Cloudy FEW025 SCT055 30 24 70% 35 76.07 0.0
04 15:15 SE 22 G 31 16.09 Fair CLR 31 23 62% 35 76.07 0.0
04 14:55 SE 22 G 33 16.09 A Few Clouds FEW060 31 23 62% 35 76.07 0.0
04 14:35 SE 22 G 31 16.09 Partly Cloudy SCT060 30 23 66% 34 76.1 0.0
04 14:15 SE 30 16.09 Fair CLR 31 23 62% 35 76.1 0.0
04 13:55 SE 28 G 39 16.09 Fair CLR 31 23 62% 35 76.12 0.0
04 13:35 SE 26 16.09 Fair CLR 31 23 62% 35 76.15 0.0
04 13:15 SE 28 G 43 16.09 Fair CLR 31 23 62% 35 76.15 0.0
04 12:55 S 26 16.09 Fair CLR 31 23 62% 35 76.15 0.0
04 12:35 SE 28 16.09 Fair CLR 31 23 62% 35 76.17 0.0
04 12:15 SE 31 16.09 Fair CLR 31 22 59% 35 76.2 0.0
04 11:55 SE 30 G 39 16.09 Fair CLR 31 21 55% 34 76.2 0.0
04 11:35 SE 33 16.09 Fair and Breezy CLR 32 20 49% 34 76.2 0.0
04 11:15 SE 31 G 43 16.09 Fair CLR 32 21 52% 35 76.2 0.0
04 10:55 SE 30 16.09 Fair CLR 32 22 55% 36 76.2 0.0
04 10:35 SE 26 16.09 Fair CLR 32 22 55% 36 76.2 0.0
04 10:15 SE 30 G 39 16.09 Fair CLR 31 22 59% 35 76.2 0.0
04 09:55 SE 37 14.48 Fair and Breezy CLR 31 23 62% 35 76.2 0.0
04 09:35 SE 31 16.09 Fair CLR 31 24 66% 37 76.2 0.0
04 09:15 SE 28 16.09 A Few Clouds FEW033 FEW042 31 23 62% 35 76.2 0.0
04 08:55 SE 24 16.09 Partly Cloudy SCT032 SCT041 30 22 62% 33 76.2 0.0
04 08:35 SE 24 16.09 A Few Clouds FEW031 FEW039 30 23 66% 34 76.2 0.0
04 08:15 E 19 16.09 Fair CLR 29 23 70% 33 76.2 0.0
04 07:55 E 17 16.09 Fair CLR 28 22 70% 31 76.2 0.0
04 07:35 E 11 16.09 Fair CLR 28 22 70% 31 76.2 0.0
04 07:15 Vrbl 7 16.09 Fair CLR 26 23 84% 28 76.17 0.0
04 06:55 Vrbl 7 16.09 Partly Cloudy SCT055 26 22 79% 28 76.17 0.0
04 06:35 Calm 16.09 Mostly Cloudy BKN055 25 22 83% 26 76.17 0.0
04 06:15 Calm 16.09 Mostly Cloudy BKN055 23 22 94% 76.15 0.0
04 05:55 Calm 16.09 Mostly Cloudy BKN055 23 22 94% 76.15 0.0
04 05:35 Calm 16.09 Mostly Cloudy FEW040 BKN050 23 21 89% 76.15 0.0
04 05:15 Calm 16.09 Overcast FEW032 SCT040 OVC050 23 21 89% 76.12 0.0
04 04:55 Calm 16.09 Mostly Cloudy SCT036 BKN044 BKN055 23 21 89% 76.12 0.0
04 04:35 Calm 16.09 A Few Clouds FEW042 23 21 89% 76.1 0.0
04 04:15 Calm 16.09 Fair CLR 23 21 89% 76.07 0.0
04 03:55 Calm 16.09 A Few Clouds FEW037 FEW045 FEW055 23 21 89% 76.1 0.0
04 03:35 Calm 16.09 Partly Cloudy FEW027 SCT036 SCT045 23 21 89% 76.07 0.0
04 03:15 Calm 16.09 Partly Cloudy FEW027 SCT035 SCT044 24 21 83% 24 76.1 0.0
04 02:55 Calm 16.09 Fair CLR 24 21 83% 24 76.07 0.0
04 02:35 Calm 16.09 Fair CLR 23 21 89% 76.1 0.0
04 02:15 E 6 16.09 Partly Cloudy SCT060 24 21 83% 24 76.1 0.0
04 01:55 Calm 16.09 Fair CLR 24 21 83% 24 76.12 0.0
04 01:35 Calm 16.09 A Few Clouds FEW023 FEW033 24 22 89% 24 76.15 0.0
04 01:15 Calm 16.09 Fair CLR 24 22 89% 24 76.15 0.0
04 00:55 Calm 16.09 Fair CLR 24 22 89% 24 76.17 0.0
04 00:35 NE 6 16.09 A Few Clouds FEW023 25 22 83% 26 76.2 0.0
04 00:15 NE 6 16.09 Fair CLR 25 22 83% 26 76.2 0.0
03 23:55 NE 7 16.09 A Few Clouds FEW030 FEW037 25 22 83% 26 76.23 0.0
03 23:35 Vrbl 6 14.48 Fair CLR 26 22 79% 28 76.25 0.0
03 23:15 Vrbl 7 16.09 Fair CLR 26 22 79% 28 76.23 0.0
03 22:55 Vrbl 7 14.48 Fair CLR 25 22 83% 26 76.23 0.0
03 22:35 NE 6 16.09 Fair CLR 25 22 83% 26 76.23 0.0
03 22:15 Vrbl 6 16.09 Fair CLR 25 22 83% 26 76.2 0.0
03 21:55 Vrbl 6 16.09 NULL NULL 25 22 83% 26 76.2 0.0
03 21:35 Calm 16.09 NULL NULL 25 22 83% 26 76.2 0.0
03 21:15 Calm 16.09 Fair CLR 26 22 79% 28 76.2 0.0
03 20:55 Calm 16.09 Fair CLR 26 22 79% 28 76.2 0.0
03 20:35 E 7 16.09 NULL NULL 26 23 84% 28 76.17 0.0
03 20:15 E 9 16.09 NULL NULL 27 23 79% 30 76.17 0.0
03 19:55 SE 7 G 19 16.09 NULL NULL 27 23 79% 30 76.15 0.0
03 19:35 SE 15 16.09 NULL NULL 28 23 74% 31 76.12 0.0
03 19:15 SE 15 G 24 16.09 Fair CLR 27 23 79% 30 76.12 0.0
03 18:55 SE 22 16.09 Fair CLR 28 22 70% 31 76.1 0.0
03 18:35 SE 20 16.09 Fair CLR 28 23 74% 31 76.1 0.0
03 18:15 SE 20 16.09 Fair CLR 29 22 66% 32 76.1 0.0
03 17:55 SE 20 G 33 16.09 Fair CLR 29 22 66% 32 76.07 0.0
03 17:35 SE 20 G 33 16.09 Fair CLR 29 23 70% 33 76.07 0.0
03 17:15 SE 20 G 30 16.09 Fair CLR 30 22 62% 33 76.07 0.0
03 16:55 SE 26 G 37 16.09 Fair CLR 30 22 62% 33 76.05 0.0
03 16:35 SE 26 16.09 Fair CLR 30 23 66% 34 76.07 0.0
03 16:15 SE 24 16.09 Fair CLR 31 22 59% 35 76.07 0.0
03 15:55 SE 30 16.09 Fair CLR 31 22 59% 35 76.07 0.0
03 15:35 SE 28 16.09 Fair CLR 31 21 55% 34 76.07 0.0
03 15:15 SE 26 G 37 16.09 Fair CLR 31 22 59% 35 76.1 0.0
03 14:55 SE 31 16.09 Fair CLR 31 22 59% 35 76.1 0.0
03 14:35 SE 30 G 41 16.09 Fair CLR 31 22 59% 35 76.12 0.0
03 14:15 SE 30 G 43 16.09 Fair CLR 31 22 59% 35 76.12 0.0
03 13:55 SE 31 G 46 16.09 Fair CLR 31 22 59% 35 76.15 0.0
03 13:35 SE 30 G 43 16.09 Fair CLR 31 22 59% 35 76.17 0.0
03 13:15 SE 31 G 43 16.09 Fair CLR 31 23 62% 35 76.17 0.0
03 12:55 SE 33 G 48 16.09 Fair and Breezy CLR 31 22 59% 35 76.2 0.0
03 12:35 SE 33 G 48 16.09 Fair and Breezy CLR 31 22 59% 35 76.2 0.0
03 12:15 SE 35 G 44 16.09 Fair and Breezy CLR 31 22 59% 35 76.2 0.0
03 11:55 SE 33 G 44 16.09 Fair and Breezy CLR 31 23 62% 35 76.23 0.0
03 11:35 SE 31 G 44 16.09 Fair CLR 31 23 62% 35 76.23 0.0
03 11:15 SE 31 G 43 16.09 Fair CLR 31 23 62% 35 76.25 0.0
03 10:55 SE 33 G 46 16.09 Fair and Breezy CLR 31 24 66% 37 76.25 0.0
03 10:35 SE 35 G 46 16.09 A Few Clouds and Breezy FEW060 31 24 66% 37 76.28 0.0
03 10:15 SE 26 16.09 Mostly Cloudy FEW032 SCT050 BKN060 30 24 70% 35 76.28 0.0
03 09:55 SE 17 G 28 16.09 Mostly Cloudy FEW032 BKN041 BKN060 30 23 66% 34 76.28 0.0
03 09:35 SE 19 G 30 16.09 Mostly Cloudy FEW035 BKN044 BKN050 30 22 62% 33 76.28 0.0
03 09:15 E 11 G 24 16.09 Partly Cloudy FEW036 SCT043 SCT050 30 22 62% 33 76.28 0.0
03 08:55 SE 22 16.09 Fair CLR 30 22 62% 33 76.28 0.0
03 08:35 E 19 G 30 16.09 Fair CLR 29 22 66% 32 76.28 0.0
03 08:15 Vrbl 9 16.09 Fair CLR 29 22 66% 32 76.25 0.0
03 07:55 Vrbl 7 16.09 Fair CLR 28 22 70% 31 76.25 0.0
03 07:35 Vrbl 7 16.09 Fair CLR 27 22 74% 29 76.23 0.0
03 07:15 Vrbl 6 16.09 Fair CLR 26 22 79% 28 76.23 0.0
03 06:55 Calm 16.09 Fair CLR 25 22 83% 26 76.23 0.0
03 06:35 Calm 16.09 Fair CLR 23 21 89% 76.2 0.0
03 06:15 Calm 16.09 Fair CLR 22 21 94% 76.17 0.0
03 05:55 Calm 16.09 Fair CLR 22 21 94% 76.17 0.0
03 05:35 Calm 16.09 Fair CLR 22 21 94% 76.17 0.0
03 05:15 Calm 16.09 Fair CLR 23 21 89% 76.17 0.0
03 04:55 Calm 16.09 Fair CLR 23 21 89% 76.15 0.0
03 04:35 Calm 16.09 Fair CLR 23 21 89% 76.15 0.0
03 04:15 Calm 11.27 Fair CLR 23 21 89% 76.15 0.0
03 03:55 Calm 16.09 Fair CLR 22 20 88% 76.15 0.0
03 03:35 Calm 16.09 Fair CLR 23 20 83% 76.15 0.0
03 03:15 Calm 16.09 Fair CLR 23 21 89% 76.15 0.0
03 02:50 Calm 11.27 Fair CLR 23 21 89% 76.17 0.0
03 02:35 Calm 6.44 Fair with Haze CLR 24 21 83% 24 76.2 0.0
03 02:15 Calm 12.87 Fair CLR 23 21 89% 76.2 0.0
03 01:55 Calm 16.09 Fair CLR 24 21 83% 24 76.2 0.0
03 01:35 Calm 16.09 Fair CLR 24 21 83% 24 76.23 0.0
03 01:15 Calm 12.87 Fair CLR 24 21 83% 24 76.23 0.0
03 00:55 Calm 16.09 Fair CLR 24 21 83% 24 76.23 0.0
03 00:35 Calm 16.09 Fair CLR 24 21 83% 24 76.23 0.0
02 23:55 Calm 16.09 A Few Clouds FEW041 25 21 79% 26 76.25 0.0
02 23:35 Calm 16.09 Fair CLR 24 21 83% 24 76.28 0.0
02 23:15 Calm 16.09 Partly Cloudy FEW026 SCT031 24 21 83% 24 76.28 0.0
02 22:55 Calm 16.09 Mostly Cloudy BKN029 25 21 79% 26 76.28 0.0
02 22:35 Calm 16.09 Partly Cloudy FEW026 SCT031 25 21 79% 26 76.28 0.0
02 22:15 Calm 16.09 A Few Clouds FEW026 FEW031 25 21 79% 26 76.25 0.0
02 21:55 Calm 16.09 A Few Clouds FEW027 25 21 79% 26 76.25 0.0
02 21:35 Vrbl 7 16.09 A Few Clouds FEW030 25 21 79% 26 76.23 0.0
02 21:15 Calm 16.09 NULL NULL 25 21 79% 26 76.2 0.0
02 20:55 E 7 16.09 NULL NULL 26 21 74% 27 76.2 0.0
02 20:35 E 9 16.09 Fair CLR 26 20 70% 27 76.17 0.0
02 20:15 E 11 16.09 NULL NULL 26 20 70% 27 76.17 0.0
02 19:50 E 7 16.09 NULL NULL 27 21 70% 29 76.12 0.0
02 19:35 SE 11 G 20 16.09 NULL NULL 28 21 66% 30 76.12 0.0
02 19:15 SE 17 16.09 Fair CLR 28 22 70% 31 76.1 0.0
02 18:55 SE 15 16.09 Fair CLR 28 22 70% 31 76.07 0.0
02 18:35 SE 28 16.09 Fair CLR 28 22 70% 31 76.07 0.0
02 18:15 SE 20 16.09 Fair CLR 29 22 66% 32 76.05 0.0
02 17:55 SE 22 G 33 16.09 Fair CLR 29 23 70% 33 76.05 0.0
02 17:35 SE 22 G 35 16.09 Fair CLR 30 22 62% 33 76.02 0.0
02 17:15 SE 22 G 37 16.09 Fair CLR 30 23 66% 34 76 0.0
02 16:55 SE 20 G 31 16.09 Fair CLR 30 23 66% 34 76 0.0
02 16:35 SE 30 16.09 Fair CLR 30 22 62% 33 76 0.0
02 16:15 SE 20 G 33 16.09 Fair CLR 30 23 66% 34 76.02 0.0
02 15:55 SE 26 G 41 16.09 Fair CLR 31 23 62% 35 76.02 0.0
02 15:35 SE 33 G 43 16.09 Fair and Breezy CLR 31 23 62% 35 76.02 0.0
02 15:15 SE 31 G 43 16.09 Fair CLR 31 23 62% 35 76.02 0.0
02 14:55 SE 35 G 48 16.09 Fair and Breezy CLR 31 23 62% 35 76.02 0.0
02 14:35 SE 35 G 46 16.09 Fair and Breezy CLR 31 23 62% 35 76.05 0.0
02 14:15 SE 33 G 46 16.09 Fair and Breezy CLR 31 23 62% 35 76.07 0.0
02 13:55 SE 31 G 44 16.09 Fair CLR 31 24 66% 37 76.1 0.0
02 13:35 SE 33 G 44 16.09 Fair and Breezy CLR 31 24 66% 37 76.1 0.0
02 13:15 SE 33 G 48 16.09 Fair and Breezy CLR 31 23 62% 35 76.12 0.0
02 12:55 SE 37 G 46 16.09 Fair and Breezy CLR 31 24 66% 37 76.12 0.0
02 12:30 SE 33 G 43 16.09 Fair and Breezy CLR 31 24 66% 37 76.15 0.0
02 12:15 SE 31 16.09 A Few Clouds FEW060 31 24 66% 37 76.17 0.0
02 11:55 SE 30 G 43 14.48 Fair CLR 31 24 66% 37 76.17 0.0
02 11:35 SE 35 16.09 Fair and Breezy CLR 31 24 66% 37 76.2 0.0
02 11:15 SE 31 16.09 Fair CLR 31 24 66% 37 76.2 0.0
02 10:55 SE 31 G 43 16.09 Fair CLR 32 24 63% 38 76.2 0.0
02 10:35 SE 33 16.09 A Few Clouds and Breezy FEW050 32 24 63% 38 76.2 0.0
02 10:15 SE 28 G 39 16.09 Partly Cloudy FEW041 SCT050 31 23 62% 35 76.2 0.0
02 09:55 SE 24 G 35 16.09 Partly Cloudy FEW035 SCT043 31 24 66% 37 76.2 0.0
02 09:35 SE 19 G 30 16.09 Mostly Cloudy BKN034 31 23 62% 35 76.2 0.0
02 09:15 E 13 G 26 16.09 A Few Clouds FEW035 30 22 62% 33 76.2 0.0
02 08:55 E 17 16.09 Fair CLR 30 22 62% 33 76.17 0.0
02 08:35 Vrbl 11 16.09 Fair CLR 29 21 62% 31 76.17 0.0
02 08:15 Vrbl 9 16.09 Fair CLR 29 20 58% 31 76.15 0.0
02 07:55 E 7 16.09 Fair CLR 28 20 62% 30 76.15 0.0
02 07:35 Calm 16.09 Fair CLR 27 20 66% 29 76.12 0.0
02 07:15 Calm 16.09 Fair CLR 27 20 66% 29 76.12 0.0
02 06:55 Calm 16.09 Fair CLR 25 21 79% 26 76.1 0.0
02 06:35 Calm 16.09 Fair CLR 24 20 78% 24 76.07 0.0
02 06:15 Calm 16.09 Fair CLR 24 20 78% 24 76.07 0.0
02 05:55 Calm 16.09 Fair CLR 23 21 89% 76.05 0.0
02 05:35 Calm 16.09 Fair CLR 23 21 89% 76.05 0.0
02 05:15 Calm 16.09 Fair CLR 23 21 89% 76.05 0.0
02 04:55 Calm 16.09 Fair CLR 23 21 89% 76.02 0.0
02 04:35 Calm 16.09 Fair CLR 23 21 89% 76 0.0
02 04:15 Calm 16.09 Fair CLR 23 21 89% 76 0.0
02 03:55 Calm 16.09 Fair CLR 23 21 89% 76 0.0
02 03:35 Calm 16.09 Fair CLR 23 21 89% 76 0.0
02 03:15 Calm 16.09 Partly Cloudy SCT037 24 22 89% 24 76 0.0
02 02:55 Calm 16.09 Overcast BKN038 OVC045 24 22 89% 24 76 0.0
02 02:35 Calm 16.09 Mostly Cloudy SCT037 BKN042 24 22 89% 24 76 0.0
02 02:15 Calm 16.09 Mostly Cloudy FEW025 BKN037 24 22 89% 24 76.02 0.0
02 01:55 Calm 16.09 Partly Cloudy SCT030 SCT038 24 22 89% 24 76.02 0.0
02 01:35 Calm 16.09 A Few Clouds FEW033 24 22 89% 24 76.05 0.0
02 01:15 Calm 16.09 Fair CLR 24 22 89% 24 76.05 0.0
02 00:55 Calm 16.09 Fair CLR 24 22 89% 24 76.05 0.0
02 00:35 Calm 16.09 Fair CLR 24 22 89% 24 76.07 0.0
02 00:15 Calm 16.09 Fair CLR 24 22 89% 24 76.1 0.0
01 23:55 Calm 16.09 Fair CLR 24 23 94% 23 76.12 0.0
01 23:35 Calm 16.09 Fair CLR 25 23 89% 26 76.12 0.0
01 23:15 Calm 16.09 Fair CLR 25 23 89% 26 76.1 0.0
01 22:55 Calm 16.09 Fair CLR 25 24 94% 26 76.1 0.0
01 22:35 Calm 16.09 Fair CLR 25 24 94% 26 76.1 0.0
01 22:15 Calm 16.09 Fair CLR 26 24 89% 28 76.07 0.0
01 21:55 Calm 16.09 Fair CLR 26 24 89% 28 76.05 0.0
01 21:35 Calm 16.09 Fair CLR 26 24 89% 28 76.05 0.0
01 21:15 E 9 16.09 Fair CLR 26 24 89% 28 76.02 0.0
01 20:55 E 9 16.09 Fair CLR 27 24 84% 30 76.02 0.0
Date Time (ast) Wind (kph) Vis. (km) Weather Sky Cond. Air Dwpt Max. Min. Relative Humidity Wind Chill (°C) Heat Index (°C) altimeter (cm) sea level (mb) 1 hr 3 hr 6 hr
6 hour
Temperature (ºC) Pressure Precipitation (cm)